Time;durP1;ratioP1;P1;durP2;ratioP2;P2;SDS_P1;SDS_P2;PMS_P1;PMS_P2;Temp;Humidity;BMP_temperature;BMP_pressure;BME280_temperature;BME280_humidity;BME280_pressure;Samples;Min_cycle;Max_cycle;Signal;HPM_P1;HPM_P2
2023/08/29 00:00:20;;;;;;;0.33;0.33;;;18.00;99.90;;;;;;5096675;28;20213;-75
2023/08/29 00:02:45;;;;;;;0.60;0.60;;;17.90;99.90;;;;;;5097001;28;20166;-76
2023/08/29 00:05:12;;;;;;;0.47;0.43;;;17.90;99.90;;;;;;5096636;28;20528;-76
2023/08/29 00:07:38;;;;;;;0.70;0.70;;;18.00;99.90;;;;;;5096429;28;20170;-76
2023/08/29 00:10:04;;;;;;;0.80;0.80;;;18.10;99.90;;;;;;5096238;28;20185;-76
2023/08/29 00:12:32;;;;;;;0.57;0.57;;;18.10;99.90;;;;;;5078908;28;20186;-76
2023/08/29 00:14:58;;;;;;;0.70;0.70;;;18.10;99.90;;;;;;5096016;28;20548;-77
2023/08/29 00:17:26;;;;;;;1.03;0.60;;;18.10;99.90;;;;;;5102693;28;20169;-76
2023/08/29 00:19:52;;;;;;;0.40;0.40;;;18.20;99.90;;;;;;5108374;28;20230;-76
2023/08/29 00:22:18;;;;;;;0.50;0.50;;;18.10;99.90;;;;;;5111511;28;20178;-78
2023/08/29 00:24:44;;;;;;;0.60;0.60;;;18.10;99.90;;;;;;5102259;28;20171;-76
2023/08/29 00:27:10;;;;;;;1.20;0.57;;;18.00;99.90;;;;;;5096961;28;20171;-76
2023/08/29 00:29:36;;;;;;;1.00;0.60;;;18.00;99.90;;;;;;5101723;28;20273;-77
2023/08/29 00:32:02;;;;;;;0.53;0.40;;;18.00;99.90;;;;;;5104080;28;20170;-77
2023/08/29 00:34:28;;;;;;;0.37;0.37;;;18.00;99.90;;;;;;5116047;28;20206;-77
2023/08/29 00:36:53;;;;;;;2.83;0.50;;;18.20;99.90;;;;;;5098651;28;20171;-77
2023/08/29 00:39:19;;;;;;;0.57;0.30;;;18.10;99.90;;;;;;5078405;28;20179;-76
2023/08/29 00:41:48;;;;;;;0.43;0.43;;;18.10;99.90;;;;;;5106732;28;20182;-77
2023/08/29 00:44:15;;;;;;;0.90;0.50;;;18.20;99.90;;;;;;5102159;28;20174;-78
2023/08/29 00:46:42;;;;;;;0.50;0.50;;;18.30;99.90;;;;;;5077797;28;20221;-78
2023/08/29 00:49:08;;;;;;;0.67;0.67;;;18.30;99.90;;;;;;5096080;28;20167;-77
2023/08/29 00:51:34;;;;;;;1.57;0.67;;;18.30;99.90;;;;;;5077071;28;20182;-76
2023/08/29 00:54:02;;;;;;;0.57;0.57;;;18.10;99.90;;;;;;5096851;28;20202;-76
2023/08/29 00:56:28;;;;;;;0.50;0.50;;;18.00;99.90;;;;;;5100098;28;20163;-76
2023/08/29 00:58:54;;;;;;;0.60;0.60;;;18.00;99.90;;;;;;5082038;28;20178;-76
2023/08/29 01:01:20;;;;;;;0.60;0.60;;;18.00;99.90;;;;;;5100964;28;20192;-75
2023/08/29 01:03:45;;;;;;;0.50;0.50;;;18.20;99.90;;;;;;5099444;28;20777;-75
2023/08/29 01:06:12;;;;;;;0.30;0.30;;;18.10;99.90;;;;;;5095296;28;20212;-77
2023/08/29 01:08:38;;;;;;;0.70;0.47;;;18.00;99.90;;;;;;5095241;28;20162;-75
2023/08/29 01:11:14;;;;;;;0.60;0.60;;;18.00;99.90;;;;;;5094951;28;20173;-77
2023/08/29 01:13:51;;;;;;;0.53;0.27;;;18.00;99.90;;;;;;5095285;28;20205;-78
2023/08/29 01:16:21;;;;;;;0.47;0.47;;;18.00;99.90;;;;;;5094985;28;20231;-77
2023/08/29 01:18:47;;;;;;;0.70;0.70;;;18.10;99.90;;;;;;5076931;28;20165;-76
2023/08/29 01:21:19;;;;;;;0.77;0.77;;;18.10;99.90;;;;;;5094912;28;20224;-76
2023/08/29 01:23:52;;;;;;;1.07;0.80;;;18.10;99.90;;;;;;5094995;28;20246;-75
2023/08/29 01:26:19;;;;;;;0.70;0.70;;;18.20;99.90;;;;;;5094718;28;20155;-77
2023/08/29 01:28:46;;;;;;;0.73;0.73;;;18.40;99.90;;;;;;5094783;28;20193;-76
2023/08/29 01:31:13;;;;;;;0.40;0.40;;;18.40;99.90;;;;;;5094740;28;20212;-77
2023/08/29 01:33:42;;;;;;;3.10;0.70;;;18.50;99.90;;;;;;5094852;28;20228;-80
2023/08/29 01:36:08;;;;;;;0.47;0.47;;;18.40;99.90;;;;;;5106272;28;20158;-78
2023/08/29 01:38:34;;;;;;;1.33;0.83;;;18.30;99.90;;;;;;5112465;28;20174;-75
2023/08/29 01:41:00;;;;;;;0.53;0.50;;;18.30;99.90;;;;;;5094844;28;20549;-77
2023/08/29 01:43:25;;;;;;;1.23;0.80;;;18.20;99.90;;;;;;5094589;28;20310;-77
2023/08/29 01:45:51;;;;;;;0.67;0.67;;;18.10;99.90;;;;;;5094770;28;20177;-76
2023/08/29 01:48:17;;;;;;;1.27;0.80;;;18.10;99.90;;;;;;5094236;28;20193;-75
2023/08/29 01:50:43;;;;;;;0.57;0.57;;;18.00;99.90;;;;;;5084094;28;20187;-76
2023/08/29 01:53:09;;;;;;;0.50;0.50;;;17.90;99.90;;;;;;5094923;28;20174;-76
2023/08/29 01:55:37;;;;;;;1.37;0.50;;;17.90;99.90;;;;;;5100043;28;20217;-76
2023/08/29 01:58:04;;;;;;;2.03;0.50;;;18.10;99.90;;;;;;5110057;28;20208;-75
2023/08/29 02:00:31;;;;;;;1.30;0.80;;;18.00;99.90;;;;;;5080004;28;20192;-79
2023/08/29 02:02:57;;;;;;;1.80;0.70;;;18.20;99.90;;;;;;5110645;28;20170;-75
2023/08/29 02:05:23;;;;;;;1.63;0.70;;;18.20;99.90;;;;;;5096107;28;20174;-76
2023/08/29 02:07:50;;;;;;;0.60;0.60;;;18.10;99.90;;;;;;5105854;28;20182;-75
2023/08/29 02:10:16;;;;;;;0.60;0.60;;;18.00;99.90;;;;;;5094507;28;20250;-77
2023/08/29 02:12:41;;;;;;;0.70;0.70;;;18.10;99.90;;;;;;5102863;28;20217;-78
2023/08/29 02:15:08;;;;;;;0.70;0.70;;;18.10;99.90;;;;;;5108348;28;20225;-77
2023/08/29 02:17:36;;;;;;;0.73;0.73;;;18.20;99.90;;;;;;5110571;28;20177;-78
2023/08/29 02:20:04;;;;;;;1.13;1.00;;;18.10;99.90;;;;;;5097112;28;20189;-78
2023/08/29 02:22:30;;;;;;;0.87;0.87;;;18.20;99.90;;;;;;5094162;28;20163;-77
2023/08/29 02:24:56;;;;;;;0.70;0.70;;;18.40;99.90;;;;;;5093714;28;20300;-77
2023/08/29 02:27:22;;;;;;;0.70;0.70;;;18.40;99.90;;;;;;5093849;28;20200;-76
2023/08/29 02:29:48;;;;;;;0.50;0.50;;;18.50;99.90;;;;;;5093703;28;20196;-77
2023/08/29 02:32:14;;;;;;;0.90;0.90;;;18.50;99.90;;;;;;5093834;28;20182;-75
2023/08/29 02:34:40;;;;;;;0.60;0.60;;;18.50;99.90;;;;;;5093705;28;20491;-76
2023/08/29 02:37:06;;;;;;;0.80;0.80;;;18.60;99.90;;;;;;5093295;28;20178;-75
2023/08/29 02:39:32;;;;;;;0.60;0.60;;;18.60;99.90;;;;;;5093353;28;20162;-75
2023/08/29 02:41:58;;;;;;;0.80;0.80;;;18.60;99.90;;;;;;5093895;28;20177;-76
2023/08/29 02:44:23;;;;;;;0.53;0.53;;;18.60;99.90;;;;;;5095024;28;20185;-75
2023/08/29 02:46:49;;;;;;;0.80;0.80;;;18.60;99.90;;;;;;5076533;28;20174;-75
2023/08/29 02:49:15;;;;;;;0.80;0.80;;;18.60;99.90;;;;;;5094592;28;20652;-75
2023/08/29 02:51:40;;;;;;;0.90;0.90;;;18.60;99.90;;;;;;5094788;28;20182;-76
2023/08/29 02:54:06;;;;;;;0.67;0.67;;;18.50;99.90;;;;;;5094800;28;20212;-77
2023/08/29 02:56:32;;;;;;;0.90;0.90;;;18.50;99.90;;;;;;5076371;28;20223;-77
2023/08/29 02:58:58;;;;;;;0.80;0.80;;;18.40;99.90;;;;;;5094213;28;20184;-77
2023/08/29 03:01:24;;;;;;;0.77;0.77;;;18.20;99.90;;;;;;5077524;28;20215;-76
2023/08/29 03:03:50;;;;;;;2.17;0.97;;;18.30;99.90;;;;;;5095218;28;20211;-79
2023/08/29 03:06:16;;;;;;;0.77;0.77;;;18.20;99.90;;;;;;5094524;28;20531;-79
2023/08/29 03:08:41;;;;;;;2.00;0.97;;;18.10;99.90;;;;;;5093823;28;20181;-80
2023/08/29 03:11:07;;;;;;;0.90;0.90;;;18.10;99.90;;;;;;5093991;28;20634;-75
2023/08/29 03:13:33;;;;;;;1.00;0.97;;;18.10;99.90;;;;;;5093591;28;20205;-77
2023/08/29 03:16:01;;;;;;;1.60;1.33;;;18.10;99.90;;;;;;5097559;28;20581;-78
2023/08/29 03:18:27;;;;;;;1.00;0.97;;;18.10;99.90;;;;;;5097518;28;20249;-78
2023/08/29 03:20:53;;;;;;;1.10;1.00;;;18.10;99.90;;;;;;5097544;28;20162;-76
2023/08/29 03:23:19;;;;;;;1.20;1.10;;;18.00;99.90;;;;;;5097540;28;20167;-77
2023/08/29 03:25:45;;;;;;;0.90;0.90;;;18.00;99.90;;;;;;5097374;28;20641;-77
2023/08/29 03:28:11;;;;;;;0.80;0.80;;;18.10;99.90;;;;;;5100597;28;20174;-77
2023/08/29 03:30:36;;;;;;;1.00;1.00;;;18.10;99.90;;;;;;5094959;28;20187;-76
2023/08/29 03:33:02;;;;;;;1.10;1.10;;;18.10;99.90;;;;;;5111321;28;20182;-78
2023/08/29 03:35:28;;;;;;;3.17;1.33;;;18.10;99.90;;;;;;5110883;28;20209;-76
2023/08/29 03:37:54;;;;;;;1.10;1.00;;;18.20;99.90;;;;;;5078698;28;20176;-76
2023/08/29 03:40:19;;;;;;;1.17;1.10;;;18.20;99.90;;;;;;5103725;28;20399;-76
2023/08/29 03:42:46;;;;;;;1.30;1.30;;;18.20;99.90;;;;;;5108981;28;20182;-79
2023/08/29 03:45:12;;;;;;;2.67;1.30;;;18.10;99.90;;;;;;5097679;28;20179;-79
2023/08/29 03:47:39;;;;;;;1.90;1.20;;;18.10;99.90;;;;;;5097665;28;20549;-79
2023/08/29 03:50:06;;;;;;;2.27;1.23;;;18.10;99.90;;;;;;5098082;28;20202;-77
2023/08/29 03:52:32;;;;;;;1.10;1.10;;;18.00;99.90;;;;;;5107855;28;20261;-75
2023/08/29 03:54:58;;;;;;;1.57;1.40;;;17.90;99.90;;;;;;5107804;28;20209;-76
2023/08/29 03:57:25;;;;;;;2.00;1.73;;;18.00;99.90;;;;;;5097128;28;20255;-76
2023/08/29 03:59:50;;;;;;;2.27;1.60;;;18.00;99.90;;;;;;5098037;28;20182;-75
2023/08/29 04:02:16;;;;;;;1.20;1.20;;;18.00;99.90;;;;;;5101844;28;20238;-77
2023/08/29 04:04:44;;;;;;;1.00;1.00;;;18.00;99.90;;;;;;5104225;28;20173;-76
2023/08/29 04:07:12;;;;;;;1.20;1.10;;;18.10;99.90;;;;;;5088498;28;20631;-76
2023/08/29 04:09:39;;;;;;;1.03;1.03;;;18.10;99.90;;;;;;5096701;28;20179;-77
2023/08/29 04:12:08;;;;;;;1.13;1.10;;;18.00;99.90;;;;;;5096332;28;20531;-76
2023/08/29 04:14:34;;;;;;;1.50;1.40;;;18.20;99.90;;;;;;5096587;28;20546;-75
2023/08/29 04:17:01;;;;;;;3.83;1.13;;;18.20;99.90;;;;;;5096558;28;20543;-77
2023/08/29 04:19:26;;;;;;;1.30;1.20;;;18.30;99.90;;;;;;5096414;28;20216;-80
2023/08/29 04:21:52;;;;;;;1.80;1.70;;;18.40;99.90;;;;;;5086744;28;20174;-79
2023/08/29 04:24:18;;;;;;;1.80;1.70;;;18.20;99.90;;;;;;5078896;28;20184;-77
2023/08/29 04:26:43;;;;;;;1.50;1.40;;;18.10;99.90;;;;;;5096656;28;20796;-78
2023/08/29 04:29:09;;;;;;;1.67;1.60;;;18.20;99.90;;;;;;5099526;28;20205;-76
2023/08/29 04:31:35;;;;;;;1.27;1.27;;;18.10;99.90;;;;;;5077014;28;20163;-75
2023/08/29 04:34:01;;;;;;;2.30;1.63;;;18.10;99.90;;;;;;5076821;28;20217;-77
2023/08/29 04:36:27;;;;;;;4.73;1.77;;;18.10;99.90;;;;;;5076294;28;20635;-80
2023/08/29 04:38:52;;;;;;;1.67;1.60;;;18.00;99.90;;;;;;5093664;28;20176;-76
2023/08/29 04:41:18;;;;;;;1.97;1.80;;;18.00;99.90;;;;;;5096355;28;20171;-77
2023/08/29 04:43:44;;;;;;;2.20;1.70;;;17.90;99.90;;;;;;5096630;28;20166;-79
2023/08/29 04:46:10;;;;;;;2.97;1.97;;;17.80;99.90;;;;;;5068930;28;20191;-75
2023/08/29 04:48:37;;;;;;;2.00;1.80;;;17.70;99.90;;;;;;5076247;28;20224;-79
2023/08/29 04:51:06;;;;;;;2.17;1.83;;;17.90;99.90;;;;;;5077128;28;20217;-78
2023/08/29 04:53:32;;;;;;;1.87;1.70;;;17.90;99.90;;;;;;5081142;28;20183;-79
2023/08/29 04:56:03;;;;;;;2.00;1.70;;;17.90;99.90;;;;;;5086922;28;20591;-78
2023/08/29 04:58:29;;;;;;;2.30;1.83;;;17.80;99.90;;;;;;5076069;28;20163;-77
2023/08/29 05:00:58;;;;;;;1.40;1.30;;;17.70;99.90;;;;;;5075977;28;20171;-78
2023/08/29 05:03:24;;;;;;;2.63;1.77;;;17.60;99.90;;;;;;5075439;28;20324;-76
2023/08/29 05:05:51;;;;;;;1.80;1.70;;;17.50;99.90;;;;;;5075610;28;20632;-80
2023/08/29 05:08:17;;;;;;;1.97;1.70;;;17.50;99.90;;;;;;5075728;28;20633;-78
2023/08/29 05:10:43;;;;;;;1.73;1.57;;;17.50;99.90;;;;;;5078020;28;20185;-77
2023/08/29 05:13:09;;;;;;;2.00;1.53;;;17.60;99.90;;;;;;5076014;28;20163;-78
2023/08/29 05:15:35;;;;;;;3.67;1.40;;;17.70;99.90;;;;;;5075784;28;20578;-80
2023/08/29 05:18:01;;;;;;;1.70;1.60;;;17.70;99.90;;;;;;5075737;28;20538;-78
2023/08/29 05:20:27;;;;;;;1.70;1.60;;;17.80;99.90;;;;;;5077941;28;20649;-77
2023/08/29 05:22:52;;;;;;;1.70;1.60;;;17.80;99.90;;;;;;5090021;28;20513;-78
2023/08/29 05:25:18;;;;;;;2.10;1.50;;;17.90;99.90;;;;;;5084559;28;20269;-77
2023/08/29 05:27:44;;;;;;;1.57;1.47;;;18.10;99.90;;;;;;5075755;28;20265;-79
2023/08/29 05:30:10;;;;;;;1.87;1.37;;;18.00;99.90;;;;;;5075089;28;20178;-79
2023/08/29 05:32:39;;;;;;;1.40;1.40;;;18.00;99.90;;;;;;5089983;28;20180;-76
2023/08/29 05:35:06;;;;;;;1.90;1.63;;;17.90;99.90;;;;;;5083075;28;20211;-78
2023/08/29 05:37:32;;;;;;;1.70;1.60;;;18.00;99.90;;;;;;5075102;28;20635;-79
2023/08/29 05:39:58;;;;;;;1.40;1.30;;;17.90;99.90;;;;;;5075329;28;20190;-77
2023/08/29 05:42:24;;;;;;;1.90;1.37;;;17.70;99.90;;;;;;5075293;28;20178;-79
2023/08/29 05:44:50;;;;;;;2.00;1.83;;;17.80;99.90;;;;;;5075239;28;20197;-77
2023/08/29 05:47:15;;;;;;;1.10;1.10;;;17.90;99.90;;;;;;5067163;28;20163;-78
2023/08/29 05:49:41;;;;;;;2.20;1.07;;;17.90;99.90;;;;;;5091827;28;20183;-76
2023/08/29 05:52:07;;;;;;;1.40;1.30;;;17.90;99.90;;;;;;5092917;28;20175;-77
2023/08/29 05:54:36;;;;;;;1.13;1.13;;;17.90;99.90;;;;;;5080149;28;20222;-79
2023/08/29 05:57:03;;;;;;;1.17;1.03;;;17.80;99.90;;;;;;5075135;28;20175;-79
2023/08/29 05:59:28;;;;;;;1.07;1.07;;;17.70;99.90;;;;;;5075428;28;20232;-77
2023/08/29 06:01:54;;;;;;;1.00;1.00;;;17.80;99.90;;;;;;5074829;28;20175;-79
2023/08/29 06:04:20;;;;;;;1.50;1.40;;;17.80;99.90;;;;;;5074565;28;20214;-77
2023/08/29 06:06:49;;;;;;;1.27;1.27;;;17.90;99.90;;;;;;5074564;28;20175;-78
2023/08/29 06:09:14;;;;;;;1.97;1.23;;;17.90;99.90;;;;;;5074213;28;20175;-76
2023/08/29 06:11:40;;;;;;;1.43;1.23;;;18.00;99.90;;;;;;5056253;28;20175;-80
2023/08/29 06:14:06;;;;;;;1.37;1.27;;;18.10;99.90;;;;;;5074379;28;20209;-76
2023/08/29 06:16:31;;;;;;;1.47;1.10;;;18.10;99.90;;;;;;5074710;28;20317;-76
2023/08/29 06:18:59;;;;;;;1.40;1.40;;;18.10;99.90;;;;;;5088645;28;20213;-77
2023/08/29 06:21:24;;;;;;;1.30;1.30;;;18.00;99.90;;;;;;5074391;28;20175;-79
2023/08/29 06:23:50;;;;;;;1.30;1.30;;;18.10;99.90;;;;;;5074028;28;20176;-76
2023/08/29 06:26:16;;;;;;;1.33;1.30;;;18.20;99.90;;;;;;5073770;28;20178;-80
2023/08/29 06:28:42;;;;;;;1.30;1.30;;;18.20;99.90;;;;;;5073968;28;20212;-76
2023/08/29 06:31:08;;;;;;;1.60;1.50;;;18.20;99.90;;;;;;5074091;28;20304;-75
2023/08/29 06:33:35;;;;;;;2.63;1.70;;;18.20;99.90;;;;;;5073681;28;20255;-78
2023/08/29 06:36:01;;;;;;;1.93;1.57;;;18.20;99.90;;;;;;5074168;28;20186;-77
2023/08/29 06:38:27;;;;;;;1.77;1.53;;;18.10;99.90;;;;;;5073400;28;20538;-75
2023/08/29 06:40:55;;;;;;;4.30;1.80;;;18.00;99.90;;;;;;5073987;28;20166;-78
2023/08/29 06:43:21;;;;;;;1.97;1.47;;;18.00;99.90;;;;;;5081083;28;20170;-79
2023/08/29 06:45:47;;;;;;;1.60;1.50;;;17.90;99.90;;;;;;5080447;28;20205;-78
2023/08/29 06:48:13;;;;;;;1.60;1.50;;;17.90;99.90;;;;;;5074474;28;20174;-76
2023/08/29 06:50:38;;;;;;;1.60;1.50;;;17.90;99.90;;;;;;5073581;28;20166;-77
2023/08/29 06:53:04;;;;;;;1.37;1.27;;;17.90;99.90;;;;;;5073805;28;20179;-76
2023/08/29 06:55:34;;;;;;;1.40;1.40;;;17.90;99.90;;;;;;5057431;28;20215;-77
2023/08/29 06:58:01;;;;;;;1.63;1.57;;;17.80;99.90;;;;;;5057839;28;20331;-77
2023/08/29 07:00:27;;;;;;;1.47;1.43;;;17.80;99.90;;;;;;5085831;28;20151;-77
2023/08/29 07:02:53;;;;;;;1.40;1.30;;;17.90;99.90;;;;;;5080879;28;20185;-78
2023/08/29 07:05:19;;;;;;;3.03;1.60;;;17.90;99.90;;;;;;5074997;28;20249;-78
2023/08/29 07:07:45;;;;;;;1.40;1.40;;;18.00;99.90;;;;;;5080435;28;20174;-76
2023/08/29 07:10:11;;;;;;;1.47;1.37;;;18.00;99.90;;;;;;5074501;28;20182;-77
2023/08/29 07:12:38;;;;;;;2.70;1.50;;;18.00;99.90;;;;;;5085465;28;20182;-76
2023/08/29 07:15:04;;;;;;;1.17;1.17;;;17.90;99.90;;;;;;5080490;28;20207;-78
2023/08/29 07:17:30;;;;;;;1.80;1.37;;;17.80;99.90;;;;;;5095483;28;20186;-77
2023/08/29 07:19:56;;;;;;;1.37;1.37;;;17.90;99.90;;;;;;5074660;28;20176;-78
2023/08/29 07:22:21;;;;;;;1.83;1.50;;;17.90;99.90;;;;;;5073895;28;20171;-77
2023/08/29 07:24:47;;;;;;;3.70;1.50;;;18.00;99.90;;;;;;5055791;28;20517;-76
2023/08/29 07:27:13;;;;;;;1.40;1.30;;;18.00;99.90;;;;;;5073811;28;20502;-77
2023/08/29 07:29:39;;;;;;;1.83;1.73;;;18.00;99.90;;;;;;5073743;28;20221;-77
2023/08/29 07:32:05;;;;;;;1.80;1.70;;;17.90;99.90;;;;;;5073980;28;20175;-76
2023/08/29 07:34:31;;;;;;;1.90;1.70;;;17.90;99.90;;;;;;5076544;28;20210;-78
2023/08/29 07:36:56;;;;;;;3.80;1.70;;;17.90;99.90;;;;;;5091432;28;20176;-77
2023/08/29 07:39:24;;;;;;;1.77;1.67;;;17.90;99.90;;;;;;5075664;28;20174;-77
2023/08/29 07:41:50;;;;;;;1.80;1.70;;;18.10;99.90;;;;;;5085208;28;20171;-76
2023/08/29 07:44:16;;;;;;;6.10;2.00;;;18.10;99.90;;;;;;5077029;28;20172;-76
2023/08/29 07:46:42;;;;;;;1.70;1.50;;;18.20;99.90;;;;;;5073492;28;20202;-77
2023/08/29 07:49:13;;;;;;;1.70;1.70;;;18.20;99.90;;;;;;5072987;28;20254;-77
2023/08/29 07:51:40;;;;;;;2.17;1.63;;;18.20;99.90;;;;;;5072965;28;20163;-76
2023/08/29 07:54:06;;;;;;;2.03;1.87;;;18.20;99.90;;;;;;5073246;28;20218;-76
2023/08/29 07:56:32;;;;;;;1.63;1.60;;;18.20;99.90;;;;;;5073091;28;20654;-77
2023/08/29 07:58:58;;;;;;;1.80;1.57;;;18.20;99.90;;;;;;5055152;28;20179;-77
2023/08/29 08:01:23;;;;;;;2.00;1.40;;;18.20;99.90;;;;;;5081574;28;20198;-77
2023/08/29 08:03:49;;;;;;;1.50;1.40;;;18.20;99.90;;;;;;5081748;28;20171;-75
2023/08/29 08:06:15;;;;;;;1.77;1.67;;;18.00;99.90;;;;;;5076771;28;20182;-77
2023/08/29 08:08:40;;;;;;;1.80;1.70;;;18.10;99.90;;;;;;5076975;28;20171;-77
2023/08/29 08:11:06;;;;;;;1.70;1.60;;;18.10;99.90;;;;;;5076616;28;20533;-77
2023/08/29 08:13:33;;;;;;;2.30;1.73;;;18.10;99.90;;;;;;5076478;28;20514;-76
2023/08/29 08:15:59;;;;;;;1.80;1.70;;;18.10;99.90;;;;;;5076001;28;20309;-77
2023/08/29 08:18:25;;;;;;;2.83;1.90;;;18.10;99.90;;;;;;5085090;28;20219;-78
2023/08/29 08:20:51;;;;;;;2.63;2.40;;;18.00;99.90;;;;;;5082471;28;20174;-77
2023/08/29 08:23:16;;;;;;;2.37;1.63;;;18.00;99.90;;;;;;5058593;28;20660;-76
2023/08/29 08:25:42;;;;;;;3.60;1.60;;;18.10;99.90;;;;;;5061624;28;20166;-77
2023/08/29 08:28:08;;;;;;;1.87;1.70;;;18.10;99.90;;;;;;5064208;28;20215;-76
2023/08/29 08:30:36;;;;;;;2.30;2.10;;;18.20;99.90;;;;;;5076634;28;20178;-76
2023/08/29 08:33:04;;;;;;;1.90;1.80;;;18.30;99.90;;;;;;5058156;28;20542;-77
2023/08/29 08:35:30;;;;;;;1.80;1.70;;;18.40;99.90;;;;;;5058249;28;20202;-76
2023/08/29 08:37:55;;;;;;;1.97;1.80;;;18.40;99.90;;;;;;5076203;28;20289;-77
2023/08/29 08:40:21;;;;;;;1.57;1.50;;;18.40;99.90;;;;;;5092171;28;20231;-77
2023/08/29 08:42:47;;;;;;;2.03;1.87;;;18.40;99.90;;;;;;5079107;28;20163;-77
2023/08/29 08:45:14;;;;;;;2.43;2.17;;;18.50;99.90;;;;;;5076261;28;20175;-76
2023/08/29 08:47:40;;;;;;;2.40;1.90;;;18.50;99.90;;;;;;5075898;28;20229;-77
2023/08/29 08:50:10;;;;;;;2.17;2.07;;;18.60;99.90;;;;;;5075958;28;20171;-77
2023/08/29 08:52:40;;;;;;;2.83;1.80;;;18.50;99.90;;;;;;5078768;28;20163;-77
2023/08/29 08:55:06;;;;;;;2.27;2.00;;;18.40;99.90;;;;;;5078640;28;20691;-76
2023/08/29 08:57:32;;;;;;;2.00;1.80;;;18.50;99.90;;;;;;5076503;28;20630;-77
2023/08/29 08:59:58;;;;;;;2.00;1.90;;;18.40;99.90;;;;;;5076835;28;20167;-77
2023/08/29 09:02:25;;;;;;;4.80;2.37;;;18.50;99.90;;;;;;5076226;28;20201;-76
2023/08/29 09:04:53;;;;;;;5.60;2.30;;;18.50;99.90;;;;;;5082455;28;20238;-77
2023/08/29 09:07:19;;;;;;;2.37;2.17;;;18.50;99.90;;;;;;5082290;28;20217;-77
2023/08/29 09:10:10;;;;;;;2.10;2.00;;;18.50;99.90;;;;;;5076315;28;20669;-79
2023/08/29 09:12:45;;;;;;;3.03;2.07;;;18.60;99.90;;;;;;5079129;28;20159;-76
2023/08/29 09:15:11;;;;;;;2.17;2.07;;;18.60;99.90;;;;;;5075236;28;20229;-76
2023/08/29 09:17:36;;;;;;;3.73;2.87;;;18.60;99.90;;;;;;5076565;28;20164;-76
2023/08/29 09:20:06;;;;;;;2.93;2.63;;;18.60;99.90;;;;;;5076129;28;20206;-76
2023/08/29 09:22:33;;;;;;;2.53;2.30;;;18.70;99.90;;;;;;5085255;28;20164;-78
2023/08/29 09:25:05;;;;;;;3.10;2.30;;;18.80;99.90;;;;;;5084153;28;20704;-77
2023/08/29 09:27:39;;;;;;;2.13;2.03;;;18.80;99.90;;;;;;5078812;28;20173;-76
2023/08/29 09:30:12;;;;;;;3.33;2.80;;;18.80;99.90;;;;;;5084853;28;20156;-78
2023/08/29 09:32:44;;;;;;;3.37;3.07;;;18.70;99.90;;;;;;5075109;28;20160;-75
2023/08/29 09:35:15;;;;;;;4.60;3.37;;;18.80;99.90;;;;;;5057202;28;20605;-76
2023/08/29 09:37:45;;;;;;;3.33;3.13;;;18.80;99.90;;;;;;5075433;28;20537;-76
2023/08/29 09:40:14;;;;;;;4.10;3.67;;;18.90;99.90;;;;;;5074882;28;20183;-77
2023/08/29 09:42:40;;;;;;;4.23;3.47;;;19.00;99.90;;;;;;5076485;28;20178;-77
2023/08/29 09:45:07;;;;;;;4.50;3.63;;;19.10;99.90;;;;;;5078545;28;20179;-76
2023/08/29 09:47:34;;;;;;;3.33;3.13;;;19.20;99.90;;;;;;5081317;28;20495;-76
2023/08/29 09:50:00;;;;;;;5.83;3.30;;;19.20;99.90;;;;;;5082522;28;20175;-77
2023/08/29 09:52:27;;;;;;;4.43;3.53;;;19.20;99.90;;;;;;5078898;28;20254;-76
2023/08/29 09:54:54;;;;;;;3.90;3.40;;;19.30;99.90;;;;;;5075151;28;20260;-77
2023/08/29 09:57:24;;;;;;;3.80;3.50;;;19.30;99.90;;;;;;5075158;28;20449;-76
2023/08/29 09:59:57;;;;;;;4.83;4.00;;;19.50;99.90;;;;;;5075089;28;20201;-78
2023/08/29 10:02:24;;;;;;;5.23;4.13;;;19.50;99.90;;;;;;5075134;28;20179;-76
2023/08/29 10:04:55;;;;;;;4.77;4.07;;;19.60;99.90;;;;;;5056975;28;20178;-76
2023/08/29 10:07:28;;;;;;;4.70;4.30;;;19.70;99.90;;;;;;5075011;28;20171;-76
2023/08/29 10:09:55;;;;;;;4.37;3.97;;;19.70;99.90;;;;;;5075372;28;20159;-77
2023/08/29 10:12:21;;;;;;;6.33;5.07;;;19.80;99.90;;;;;;5075283;28;20590;-76
2023/08/29 10:14:47;;;;;;;5.73;4.53;;;19.90;99.90;;;;;;5075040;28;20206;-77
2023/08/29 10:17:13;;;;;;;6.67;4.57;;;19.90;99.90;;;;;;5075222;28;20582;-76
2023/08/29 10:19:40;;;;;;;4.70;4.30;;;20.00;99.90;;;;;;5086267;28;20167;-78
2023/08/29 10:22:09;;;;;;;6.13;4.57;;;19.90;99.90;;;;;;5079294;28;20259;-76
2023/08/29 10:24:36;;;;;;;5.40;4.90;;;19.90;99.90;;;;;;5076844;28;20250;-77
2023/08/29 10:27:03;;;;;;;5.23;4.73;;;19.90;99.90;;;;;;5076194;28;20239;-78
2023/08/29 10:29:33;;;;;;;5.37;4.87;;;19.90;99.90;;;;;;5086600;28;20239;-78
2023/08/29 10:32:01;;;;;;;6.93;4.90;;;19.90;99.90;;;;;;5087774;28;20174;-76
2023/08/29 10:34:28;;;;;;;6.43;5.17;;;20.00;99.90;;;;;;5075622;28;20690;-77
2023/08/29 10:36:55;;;;;;;6.30;5.27;;;20.10;99.90;;;;;;5056390;28;20190;-77
2023/08/29 10:39:21;;;;;;;6.93;5.23;;;20.10;99.90;;;;;;5074163;28;20168;-77
2023/08/29 10:41:51;;;;;;;6.17;5.57;;;20.20;99.90;;;;;;5055881;28;20181;-76
2023/08/29 10:44:44;;;;;;;8.70;5.53;;;20.30;99.90;;;;;;5073964;28;20181;-77
2023/08/29 10:47:26;;;;;;;5.20;4.80;;;20.40;99.90;;;;;;5069520;28;20202;-76
2023/08/29 10:50:04;;;;;;;9.23;6.87;;;20.50;99.90;;;;;;5074422;28;20242;-77
2023/08/29 10:52:41;;;;;;;7.03;6.30;;;20.50;99.90;;;;;;5074909;28;20207;-77
2023/08/29 10:55:24;;;;;;;10.80;7.70;;;20.50;99.90;;;;;;5075754;28;20205;-76
2023/08/29 10:57:51;;;;;;;10.40;6.27;;;20.70;99.90;;;;;;5073881;28;20173;-77
2023/08/29 11:00:56;;;;;;;5.60;5.10;;;20.80;99.90;;;;;;5082611;28;20168;-77
2023/08/29 11:03:44;;;;;;;7.73;6.60;;;21.00;99.90;;;;;;5093995;28;20170;-77
2023/08/29 11:06:10;;;;;;;7.43;5.57;;;21.10;99.90;;;;;;5079625;28;20164;-76
2023/08/29 11:08:36;;;;;;;7.33;5.60;;;21.10;99.90;;;;;;5081863;28;20167;-77
2023/08/29 11:11:16;;;;;;;6.00;5.40;;;21.10;99.90;;;;;;5081595;28;20702;-78
2023/08/29 11:14:00;;;;;;;5.57;5.07;;;21.10;99.90;;;;;;5073579;28;20194;-77
2023/08/29 11:16:28;;;;;;;6.47;5.83;;;21.00;99.90;;;;;;5073395;28;20214;-76
2023/08/29 11:19:15;;;;;;;6.87;5.70;;;20.90;99.90;;;;;;5073072;28;20190;-76
2023/08/29 11:21:45;;;;;;;5.30;4.83;;;20.80;99.90;;;;;;5073481;28;20166;-77
2023/08/29 11:24:11;;;;;;;7.00;5.83;;;20.90;99.90;;;;;;5073303;28;20187;-76
2023/08/29 11:26:41;;;;;;;8.53;5.37;;;20.90;99.90;;;;;;5072951;28;20638;-76
2023/08/29 11:29:07;;;;;;;6.27;5.57;;;20.90;99.90;;;;;;5073683;28;20155;-77
2023/08/29 11:31:39;;;;;;;8.73;5.27;;;20.80;99.90;;;;;;5072920;28;20167;-76
2023/08/29 11:34:13;;;;;;;5.57;5.03;;;20.80;99.90;;;;;;5072957;28;20190;-78
2023/08/29 11:36:40;;;;;;;5.93;5.30;;;20.80;99.90;;;;;;5076281;28;20171;-76
2023/08/29 11:39:07;;;;;;;5.20;4.80;;;20.80;99.90;;;;;;5078617;28;20171;-77
2023/08/29 11:41:34;;;;;;;5.63;5.13;;;20.90;99.90;;;;;;5082679;28;20522;-76
2023/08/29 11:44:00;;;;;;;5.33;4.83;;;20.70;99.90;;;;;;5077428;28;20163;-76
2023/08/29 11:46:33;;;;;;;5.23;4.83;;;20.50;99.90;;;;;;5077059;28;20170;-77
2023/08/29 11:48:59;;;;;;;5.20;4.80;;;20.40;99.90;;;;;;5076930;28;20213;-78
2023/08/29 11:51:25;;;;;;;7.63;4.63;;;20.30;99.90;;;;;;5076909;28;20171;-78
2023/08/29 11:53:51;;;;;;;4.80;4.40;;;20.20;99.90;;;;;;5081151;28;20181;-77
2023/08/29 11:56:17;;;;;;;6.50;5.17;;;20.20;99.90;;;;;;5077321;28;20272;-77
2023/08/29 11:58:43;;;;;;;6.17;5.33;;;20.20;99.90;;;;;;5081062;28;20537;-77
2023/08/29 12:01:09;;;;;;;5.40;4.40;;;20.10;99.90;;;;;;5077921;28;20719;-76
2023/08/29 12:03:39;;;;;;;4.53;4.13;;;20.00;99.90;;;;;;5076581;28;20167;-77
2023/08/29 12:06:12;;;;;;;4.30;4.00;;;20.00;99.90;;;;;;5076524;28;20175;-77
2023/08/29 12:08:40;;;;;;;4.70;4.30;;;20.00;99.90;;;;;;5076095;28;20176;-78
2023/08/29 12:11:06;;;;;;;4.43;4.00;;;20.00;99.90;;;;;;5082952;28;20183;-77
2023/08/29 12:13:34;;;;;;;4.63;4.23;;;20.00;99.90;;;;;;5077466;28;20168;-77
2023/08/29 12:16:02;;;;;;;4.17;3.80;;;20.40;99.90;;;;;;5076383;28;20647;-77
2023/08/29 12:18:28;;;;;;;4.10;3.80;;;20.10;99.90;;;;;;5076447;28;20194;-77
2023/08/29 12:21:16;;;;;;;3.97;3.73;;;20.20;99.90;;;;;;5076504;28;20638;-77
2023/08/29 12:23:45;;;;;;;5.27;3.63;;;20.30;99.90;;;;;;5076624;28;20171;-77
2023/08/29 12:26:14;;;;;;;3.47;3.27;;;20.30;99.90;;;;;;5080809;28;20247;-78
2023/08/29 12:28:40;;;;;;;3.80;3.50;;;20.20;99.90;;;;;;5077561;28;20182;-77
2023/08/29 12:31:07;;;;;;;3.77;3.47;;;20.20;99.90;;;;;;5076375;28;20175;-77
2023/08/29 12:33:34;;;;;;;5.10;3.43;;;20.10;99.90;;;;;;5075950;28;20181;-78
2023/08/29 12:36:00;;;;;;;3.90;3.70;;;20.20;99.90;;;;;;5075900;28;20167;-77
2023/08/29 12:38:29;;;;;;;4.07;3.73;;;20.20;99.90;;;;;;5076157;28;20255;-77
2023/08/29 12:40:54;;;;;;;3.83;3.50;;;20.20;99.90;;;;;;5076083;28;20258;-77
2023/08/29 12:43:20;;;;;;;3.83;3.50;;;20.30;99.90;;;;;;5076348;28;20203;-77
2023/08/29 12:45:46;;;;;;;3.80;3.60;;;20.20;99.90;;;;;;5075678;28;20167;-76
2023/08/29 12:48:13;;;;;;;3.70;3.50;;;20.20;99.90;;;;;;5074730;28;20179;-78